^^
Datos históricos de la estación: Murcia-Puente Tocinos
Diario Informe para Agosto 12, 2019 Unidades:  Métrico    Ingés   Ambas
Diario Semanal Mensual Anual
  Máxima: Mínima: Promedio:
Temperatura: 21.2 °C 15.8 °C 18.4 °C
Punto de rocio: 19.4 °C 14.9 °C 16.9 °C
Humedad: 97% 79% 91%
Velocidad viento: 22.1km/h 0km/h 8.1km/h
Racha viento: 42.6km/h - -
Viento- - SSE
Presión: 1022.5 hPa 1017.6 hPa -
Precipitación: 87.9 mm    
 
 
Tabla de datos para Agosto 12, 2019
Hora Temperatura Punto de rocio Presión Viento Velocidad viento Racha viento Humedad Intensidad lluvia(por hora) Nubes
00:04 18.6 °C 15.4 °C 1020.0 hPa SO 7.6 km/h 13 km/h 82% 0.0 mm
00:09 18.6 °C 15.4 °C 1019.8 hPa SO 7.6 km/h 13.7 km/h 81.6% 0.0 mm
00:14 18.6 °C 15.3 °C 1019.8 hPa SO 7.6 km/h 14.8 km/h 81% 0.0 mm
00:19 18.6 °C 15.1 °C 1019.8 hPa SO 7.7 km/h 13 km/h 80.2% 0.0 mm
00:24 18.7 °C 15.2 °C 1019.7 hPa SO 8.4 km/h 12.9 km/h 80% 0.0 mm
00:29 18.7 °C 15.2 °C 1019.7 hPa SO 8 km/h 11.9 km/h 80% 0.0 mm
00:34 18.7 °C 15.2 °C 1019.7 hPa SSO 5.8 km/h 15.6 km/h 80% 0.0 mm
00:39 18.6 °C 15 °C 1019.6 hPa SSO 6.4 km/h 16.1 km/h 79.4% 0.0 mm
00:44 18.6 °C 14.9 °C 1019.6 hPa SSO 9.5 km/h 15.6 km/h 79% 0.0 mm
00:49 18.6 °C 14.9 °C 1019.6 hPa SSO 9.5 km/h 16.7 km/h 79% 0.0 mm
00:54 18.6 °C 14.9 °C 1019.4 hPa SSO 9.5 km/h 16.1 km/h 79% 0.0 mm
00:59 18.6 °C 14.9 °C 1019.4 hPa SSO 9.3 km/h 14.5 km/h 79% 0.0 mm
01:04 18.7 °C 15 °C 1019.4 hPa Sur 8.7 km/h 13.7 km/h 79% 0.0 mm
01:09 18.7 °C 15.1 °C 1019.4 hPa SSE 8.7 km/h 14.8 km/h 79.7% 0.0 mm
01:14 18.7 °C 15.2 °C 1019.4 hPa Sur 8.7 km/h 14.5 km/h 80% 0.0 mm
01:19 18.7 °C 15.2 °C 1020.1 hPa SSO 8.2 km/h 11.3 km/h 80% 0.5 mm
01:24 18.6 °C 15.3 °C 1020.1 hPa SSO 5.8 km/h 9.7 km/h 81% 1.2 mm
01:26 18.5 °C 15.2 °C 1020.1 hPa SSO 5.8 km/h 11.1 km/h 81% 1.2 mm
01:39 17.8 °C 15.1 °C 1019.9 hPa OSO 9.3 km/h 18.5 km/h 84% 2.5 mm
01:44 17.8 °C 15.1 °C 1019.9 hPa SO 11.1 km/h 19.3 km/h 84.6% 2.8 mm
01:49 17.7 °C 15.3 °C 1019.9 hPa SSO 10.7 km/h 15.6 km/h 85.6% 3.0 mm
01:54 17.6 °C 15.2 °C 1019.7 hPa SSO 8.7 km/h 16.7 km/h 86.1% 3.3 mm
01:59 17.5 °C 15.3 °C 1019.7 hPa SO 9.3 km/h 20.4 km/h 87% 3.6 mm
02:04 17.4 °C 15.2 °C 1019.7 hPa SO 11.9 km/h 20.9 km/h 87% 3.6 mm
02:09 17.3 °C 15.2 °C 1019.1 hPa SO 11.6 km/h 20.9 km/h 87.1% 3.6 mm
02:14 17.3 °C 15.2 °C 1019.0 hPa SO 10.3 km/h 20.9 km/h 87.8% 3.8 mm
02:19 17.2 °C 15.2 °C 1019.0 hPa SO 10.6 km/h 20.9 km/h 88% 4.1 mm
02:24 17.2 °C 15.3 °C 1018.8 hPa SO 11.9 km/h 20.9 km/h 88.4% 3.6 mm
02:29 17.1 °C 15.3 °C 1018.8 hPa SO 11.6 km/h 17.2 km/h 89% 3.4 mm
02:34 17.1 °C 15.4 °C 1018.8 hPa SSO 10 km/h 17.7 km/h 89.5% 3.3 mm
02:39 17.1 °C 15.4 °C 1018.8 hPa Sur 9.8 km/h 14.8 km/h 90% 3.3 mm
02:44 17 °C 15.4 °C 1018.8 hPa SSO 8.7 km/h 16.4 km/h 90.1% 4.1 mm
02:49 17 °C 15.5 °C 1018.8 hPa SO 8.9 km/h 16.7 km/h 91% 4.4 mm
02:54 16.9 °C 15.4 °C 1018.4 hPa SO 10 km/h 27.8 km/h 91.1% 5.1 mm
02:59 16.8 °C 15.5 °C 1018.3 hPa SO 10.6 km/h 27.4 km/h 92% 5.1 mm
03:04 16.7 °C 15.4 °C 1018.3 hPa SO 13 km/h 25.9 km/h 92% 5.6 mm
03:09 16.7 °C 15.4 °C 1018.1 hPa SO 13 km/h 25.7 km/h 92.3% 6.4 mm
03:14 16.6 °C 15.5 °C 1018.1 hPa Sur 13 km/h 24.1 km/h 93% 6.7 mm
03:19 16.6 °C 15.4 °C 1018.1 hPa Sur 13.1 km/h 24.1 km/h 93% 7.6 mm
03:24 16.5 °C 15.4 °C 1018.1 hPa Sur 13.7 km/h 24.1 km/h 93% 9.0 mm
03:29 16.4 °C 15.3 °C 1018.1 hPa SSE 14.1 km/h 32.3 km/h 93% 10.3 mm
03:34 16.3 °C 15.2 °C 1018.4 hPa SSE 16.1 km/h 33.8 km/h 93.4% 11.5 mm
03:39 16.2 °C 15.3 °C 1018.4 hPa SSE 16.6 km/h 33.8 km/h 94% 13.6 mm
03:44 16.1 °C 15.1 °C 1018.4 hPa Sur 19 km/h 35.2 km/h 94% 16.7 mm
03:49 15.9 °C 15 °C 1018.4 hPa SSO 19.3 km/h 35.4 km/h 94% 19.2 mm
03:54 15.9 °C 14.9 °C 1018.0 hPa SSO 20.9 km/h 33.8 km/h 94% 20.2 mm
03:59 15.8 °C 15 °C 1018.0 hPa SSO 20.3 km/h 29.6 km/h 94.7% 20.8 mm
04:04 15.8 °C 15 °C 1018.0 hPa SSO 18 km/h 29 km/h 95% 21.8 mm
04:09 15.8 °C 15 °C 1018.0 hPa SO 17.5 km/h 33.5 km/h 95% 21.5 mm
04:14 15.8 °C 15 °C 1018.0 hPa SO 14.8 km/h 33.8 km/h 95% 21.2 mm
04:19 15.8 °C 15 °C 1018.1 hPa SO 14.9 km/h 29 km/h 95% 20.7 mm
04:24 15.8 °C 15 °C 1018.1 hPa SO 15.6 km/h 19.8 km/h 95% 19.2 mm
04:29 15.8 °C 15 °C 1018.1 hPa OSO 15 km/h 20.9 km/h 95% 17.4 mm
04:34 15.8 °C 15 °C 1018.1 hPa OSO 12.2 km/h 19.3 km/h 95% 15.9 mm
04:39 15.8 °C 15.1 °C 1017.6 hPa SSO 11.6 km/h 19.3 km/h 94.9% 14.1 mm
04:44 15.9 °C 15 °C 1017.6 hPa SO 8.7 km/h 20.9 km/h 94.5% 11.0 mm
04:49 15.9 °C 14.9 °C 1017.8 hPa Sur 8.7 km/h 20.9 km/h 94% 7.2 mm
04:54 15.9 °C 14.9 °C 1017.8 hPa SO 8.4 km/h 16.7 km/h 94% 4.4 mm
04:59 15.9 °C 14.9 °C 1017.8 hPa SSE 8.4 km/h 16.1 km/h 94% 2.3 mm
05:04 15.9 °C 14.9 °C 1018.1 hPa ENE 8.4 km/h 11.3 km/h 94% 1.5 mm
05:09 15.9 °C 15 °C 1018.1 hPa NE 7.5 km/h 8 km/h 94% 0.3 mm
05:14 16 °C 15 °C 1018.1 hPa North 3.2 km/h 8 km/h 94% 0.0 mm
05:19 15.9 °C 14.9 °C 1018.5 hPa NO 3.4 km/h 9.5 km/h 94% 0.0 mm
05:24 15.9 °C 14.9 °C 1018.5 hPa NO 4.7 km/h 9.7 km/h 94% 0.0 mm
05:29 15.9 °C 14.9 °C 1018.5 hPa NO 4.3 km/h 8 km/h 94% 0.0 mm
05:34 15.9 °C 14.9 °C 1018.6 hPa Oeste 2.9 km/h 7.4 km/h 94% 0.0 mm
05:39 15.9 °C 14.9 °C 1018.6 hPa OSO 2.9 km/h 8 km/h 94% 0.0 mm
05:44 15.9 °C 14.9 °C 1018.6 hPa Sur 2.9 km/h 7.4 km/h 94% 0.0 mm
05:49 15.9 °C 14.9 °C 1018.7 hPa Sur 3 km/h 8 km/h 94% 0.0 mm
05:54 15.9 °C 14.9 °C 1018.7 hPa Oeste 3.2 km/h 5.8 km/h 94% 0.0 mm
05:59 15.9 °C 15 °C 1018.7 hPa NNO 3.2 km/h 6.4 km/h 94% 0.0 mm
06:04 16 °C 15.1 °C 1019.0 hPa North 3.2 km/h 5 km/h 94.2% 0.0 mm
06:09 16.1 °C 15.1 °C 1019.0 hPa ENE 3.2 km/h 8.4 km/h 94.2% 0.0 mm
06:14 16.1 °C 15.1 °C 1019.0 hPa NE 3.2 km/h 8 km/h 94% 0.0 mm
06:19 16 °C 15 °C 1019.0 hPa NE 3.3 km/h 8 km/h 94% 0.0 mm
06:24 16 °C 15.1 °C 1018.8 hPa Este 3.9 km/h 8.4 km/h 94.6% 0.0 mm
06:29 15.9 °C 14.9 °C 1018.8 hPa SSE 4 km/h 12.2 km/h 94% 0.0 mm
06:34 15.9 °C 14.9 °C 1018.8 hPa SSE 5 km/h 14.8 km/h 94% 0.0 mm
06:39 16 °C 15 °C 1018.6 hPa Sur 5.9 km/h 14.5 km/h 94% 0.0 mm
06:44 16 °C 15.1 °C 1018.6 hPa Sur 10 km/h 14.8 km/h 94% 0.0 mm
06:49 16 °C 15.1 °C 1018.7 hPa Sur 9.7 km/h 14.8 km/h 94% 0.0 mm
06:54 16.1 °C 15.1 °C 1018.7 hPa SSO 8.7 km/h 13 km/h 94% 0.0 mm
06:59 16.2 °C 15.2 °C 1018.7 hPa SSO 8.5 km/h 13.7 km/h 94% 0.0 mm
07:04 16.2 °C 15.2 °C 1018.7 hPa SSO 7.6 km/h 16.1 km/h 94% 0.0 mm
07:09 16.3 °C 15.2 °C 1018.7 hPa SSO 8 km/h 18.5 km/h 93% 0.0 mm
07:14 16.4 °C 15.2 °C 1018.7 hPa SO 10.3 km/h 19.3 km/h 92.3% 0.0 mm
07:19 16.6 °C 15.2 °C 1018.7 hPa SSO 10 km/h 16.1 km/h 91.9% 0.0 mm
07:24 16.7 °C 15.2 °C 1018.7 hPa SSO 8.4 km/h 14.8 km/h 91% 0.0 mm
07:29 16.7 °C 15.2 °C 1018.7 hPa SSO 8.4 km/h 16.1 km/h 90.5% 0.0 mm
07:34 16.8 °C 15.2 °C 1018.8 hPa SO 8.4 km/h 16.7 km/h 90% 0.0 mm
07:39 16.8 °C 15.2 °C 1018.8 hPa SO 8.1 km/h 12.9 km/h 90% 0.0 mm
07:44 16.9 °C 15.2 °C 1018.8 hPa SO 6.9 km/h 14.8 km/h 89.8% 0.0 mm
07:49 16.9 °C 15.1 °C 1019.2 hPa OSO 6.9 km/h 14.8 km/h 89% 8.6 mm
07:54 16.9 °C 15.1 °C 1019.2 hPa SO 6.9 km/h 14.8 km/h 89% 8.6 mm
07:59 17.1 °C 15.2 °C 1019.2 hPa SO 7.2 km/h 14.5 km/h 89% 8.6 mm
08:04 17.1 °C 15.3 °C 1019.5 hPa SO 8.4 km/h 11.3 km/h 89% 8.6 mm
08:09 17.2 °C 15.4 °C 1019.5 hPa SO 8 km/h 13.7 km/h 89% 8.6 mm
08:14 17.2 °C 15.3 °C 1019.5 hPa SO 6.5 km/h 14.8 km/h 88.6% 8.6 mm
08:19 17.2 °C 15.2 °C 1019.5 hPa SO 7 km/h 15.6 km/h 88% 8.6 mm
08:24 17.3 °C 15.3 °C 1019.5 hPa SO 9.5 km/h 16.1 km/h 88% 8.6 mm
08:29 17.3 °C 15.3 °C 1019.5 hPa OSO 8.7 km/h 11.3 km/h 88% 8.6 mm
08:34 17.4 °C 15.3 °C 1019.7 hPa SO 5 km/h 11.1 km/h 87.7% 8.6 mm
08:39 17.4 °C 15.2 °C 1019.7 hPa SO 5.2 km/h 11.3 km/h 87% 8.6 mm
08:44 17.5 °C 15.3 °C 1019.7 hPa SSO 6.4 km/h 11.9 km/h 87% 8.6 mm
08:49 17.6 °C 15.4 °C 1019.7 hPa SSO 6.5 km/h 11.3 km/h 87% 8.6 mm
08:54 17.6 °C 15.4 °C 1019.5 hPa SSO 6.5 km/h 9.7 km/h 87% 0.0 mm
08:59 17.6 °C 15.4 °C 1019.5 hPa SO 6.5 km/h 9.7 km/h 87% 0.0 mm
09:04 17.6 °C 15.4 °C 1019.7 hPa SO 6.5 km/h 9.7 km/h 87.1% 0.0 mm
09:09 17.7 °C 15.4 °C 1019.7 hPa SO 6.3 km/h 11.1 km/h 87% 0.0 mm
09:14 17.7 °C 15.5 °C 1019.7 hPa SSO 5.8 km/h 11.3 km/h 87% 0.0 mm
09:19 17.7 °C 15.5 °C 1020.0 hPa SSO 5.9 km/h 10 km/h 87% 0.0 mm
09:24 17.8 °C 15.6 °C 1020.0 hPa SSO 6.4 km/h 13 km/h 87% 0.0 mm
09:29 17.8 °C 15.5 °C 1020.0 hPa SSO 6.8 km/h 14.8 km/h 86.2% 0.0 mm
09:34 17.8 °C 15.5 °C 1020.0 hPa SO 8.4 km/h 14.5 km/h 86% 0.0 mm
09:39 17.9 °C 15.5 °C 1019.9 hPa SSO 8 km/h 11.3 km/h 86% 0.0 mm
09:44 18 °C 15.6 °C 1019.9 hPa Sur 6.5 km/h 9.7 km/h 86% 0.0 mm
09:49 18.1 °C 15.7 °C 1020.7 hPa SO 6.3 km/h 9.7 km/h 86% 0.0 mm
09:54 18.1 °C 15.7 °C 1020.7 hPa NNE 5 km/h 8 km/h 86% 0.0 mm
09:59 18.2 °C 15.8 °C 1020.7 hPa North 4.7 km/h 5.6 km/h 86% 0.0 mm
10:04 18.2 °C 15.8 °C 1020.7 hPa Oeste 2.9 km/h 7.4 km/h 86% 0.0 mm
10:09 18.2 °C 16 °C 1020.6 hPa SSO 3.2 km/h 8 km/h 87% 0.0 mm
10:14 18.2 °C 15.9 °C 1020.6 hPa SSO 4.7 km/h 10 km/h 86.4% 0.0 mm
10:19 18.2 °C 16 °C 1020.6 hPa SSO 4.9 km/h 11.9 km/h 87% 0.0 mm
10:24 18.2 °C 16 °C 1020.3 hPa SSE 6.9 km/h 12.2 km/h 87% 0.0 mm
10:29 18.3 °C 16.1 °C 1020.3 hPa Sur 6.9 km/h 13 km/h 87% 0.0 mm
10:34 18.3 °C 16.1 °C 1020.7 hPa Sur 6.9 km/h 13 km/h 87% 0.0 mm
10:39 18.4 °C 16.2 °C 1020.7 hPa SSE 7.2 km/h 13 km/h 87% 0.0 mm
10:44 18.4 °C 16.2 °C 1020.7 hPa SSO 8.4 km/h 12.9 km/h 87% 0.0 mm
10:49 18.5 °C 16.3 °C 1021.4 hPa NO 7.7 km/h 10 km/h 87% 0.0 mm
10:54 18.5 °C 16.3 °C 1021.4 hPa North 4.7 km/h 11.9 km/h 87% 0.0 mm
10:59 18.4 °C 16.4 °C 1021.4 hPa NNE 4.9 km/h 11.3 km/h 87.9% 0.0 mm
11:04 18.4 °C 16.4 °C 1021.7 hPa SE 5.8 km/h 9.7 km/h 88% 0.0 mm
11:09 18.4 °C 16.4 °C 1021.7 hPa Sur 5.7 km/h 13 km/h 88% 0.0 mm
11:14 18.4 °C 16.4 °C 1021.7 hPa Sur 5 km/h 12.9 km/h 88% 0.0 mm
11:19 18.4 °C 16.5 °C 1021.8 hPa SE 5.4 km/h 12.2 km/h 88.5% 0.3 mm
11:24 18.5 °C 16.7 °C 1021.8 hPa SE 7.6 km/h 13.7 km/h 89% 0.3 mm
11:29 18.5 °C 16.7 °C 1021.8 hPa SSO 7.9 km/h 15.6 km/h 89.1% 0.5 mm
11:34 18.5 °C 16.9 °C 1021.8 hPa SO 9.5 km/h 16.1 km/h 90% 1.3 mm
11:39 18.5 °C 16.9 °C 1021.6 hPa SO 9.2 km/h 15.6 km/h 90% 1.3 mm
11:44 18.4 °C 16.9 °C 1021.6 hPa NNE 7.6 km/h 16.1 km/h 90.9% 1.8 mm
11:49 18.3 °C 16.8 °C 1021.6 hPa SSO 7.9 km/h 20.4 km/h 91% 2.0 mm
11:54 18.3 °C 16.8 °C 1021.4 hPa SO 9.5 km/h 20.9 km/h 91% 2.0 mm
11:59 18.3 °C 16.9 °C 1021.4 hPa Oeste 9 km/h 19.3 km/h 91.7% 2.0 mm
12:04 18.3 °C 17 °C 1021.5 hPa Oeste 6.9 km/h 19.3 km/h 92% 2.0 mm
12:09 18.3 °C 17 °C 1021.5 hPa Oeste 7 km/h 19.3 km/h 92% 2.6 mm
12:14 18.4 °C 17.1 °C 1021.5 hPa NNO 7.6 km/h 11.3 km/h 92% 5.9 mm
12:19 18.4 °C 17.1 °C 1022.1 hPa Este 6.9 km/h 8 km/h 92.1% 8.1 mm
12:24 18.3 °C 17.2 °C 1022.1 hPa NNO 3.9 km/h 16.7 km/h 93% 11.7 mm
12:29 18.2 °C 17.1 °C 1022.1 hPa Oeste 4.5 km/h 16.1 km/h 93.1% 13.6 mm
12:34 18.2 °C 17.2 °C 1022.1 hPa SSE 7.6 km/h 13.7 km/h 94% 14.3 mm
12:39 18.2 °C 17.2 °C 1022.1 hPa SSO 7.4 km/h 14.5 km/h 94% 16.1 mm
12:44 18.2 °C 17.2 °C 1022.1 hPa SSE 6.5 km/h 9.7 km/h 94.1% 16.1 mm
12:49 18.2 °C 17.4 °C 1022.1 hPa Sur 6.2 km/h 11.1 km/h 94.9% 16.2 mm
12:54 18.3 °C 17.5 °C 1021.7 hPa OSO 5 km/h 11.3 km/h 95% 16.4 mm
12:59 18.3 °C 17.5 °C 1021.6 hPa Oeste 5.2 km/h 11.3 km/h 95% 16.4 mm
13:04 18.4 °C 17.6 °C 1021.8 hPa Sur 5.8 km/h 9.7 km/h 95% 16.4 mm
13:09 18.5 °C 17.7 °C 1021.8 hPa SSE 5.6 km/h 10 km/h 95.4% 16.4 mm
13:14 18.6 °C 17.8 °C 1021.8 hPa Sur 5 km/h 11.1 km/h 95.2% 15.3 mm
13:19 18.5 °C 17.7 °C 1021.9 hPa SSO 5.4 km/h 11.9 km/h 95.2% 12.0 mm
13:24 18.5 °C 17.8 °C 1021.9 hPa SSO 7.6 km/h 13.7 km/h 95.7% 8.9 mm
13:29 18.6 °C 17.9 °C 1021.9 hPa SSO 7.8 km/h 14.8 km/h 96% 6.1 mm
13:34 18.7 °C 18.1 °C 1022.1 hPa ONO 8.7 km/h 14.5 km/h 96% 3.8 mm
13:39 18.8 °C 18.2 °C 1022.1 hPa NNE 8 km/h 13 km/h 96% 2.5 mm
13:44 18.8 °C 18.2 °C 1022.1 hPa NNO 4.7 km/h 12.9 km/h 96% 1.0 mm
13:49 18.8 °C 18.2 °C 1022.2 hPa NO 4.7 km/h 10 km/h 96% 0.5 mm
13:54 18.8 °C 18.2 °C 1022.2 hPa ONO 5 km/h 9.7 km/h 96% 0.0 mm
13:59 18.9 °C 18.2 °C 1022.2 hPa NO 4.6 km/h 7.4 km/h 96% 0.0 mm
14:04 18.9 °C 18.2 °C 1022.2 hPa NE 3.2 km/h 11.9 km/h 96% 0.3 mm
14:09 18.9 °C 18.2 °C 1021.9 hPa NE 3.6 km/h 11.3 km/h 96% 1.1 mm
14:14 18.9 °C 18.2 °C 1021.9 hPa ESE 5 km/h 8 km/h 96% 3.6 mm
14:19 18.9 °C 18.3 °C 1021.9 hPa ESE 5 km/h 9.3 km/h 96% 4.1 mm
14:24 19 °C 18.3 °C 1021.9 hPa NE 5 km/h 9.7 km/h 96% 4.1 mm
14:29 19 °C 18.3 °C 1021.9 hPa SE 4.8 km/h 9.3 km/h 96% 4.1 mm
14:34 19 °C 18.3 °C 1021.9 hPa Sur 3.9 km/h 9.7 km/h 96% 4.4 mm
14:39 19 °C 18.3 °C 1021.8 hPa ESE 3.7 km/h 9.5 km/h 96% 5.2 mm
14:44 19.1 °C 18.4 °C 1021.8 hPa ESE 3.2 km/h 14 km/h 96% 5.4 mm
14:49 19.1 °C 18.4 °C 1021.8 hPa Sur 4 km/h 14.8 km/h 96% 5.7 mm
14:54 18.9 °C 18.3 °C 1021.3 hPa OSO 7.6 km/h 14.5 km/h 96% 5.7 mm
14:59 19 °C 18.4 °C 1021.2 hPa ONO 7.2 km/h 11.3 km/h 96% 5.7 mm
15:04 19.1 °C 18.4 °C 1021.2 hPa Oeste 5.8 km/h 11.9 km/h 96% 5.7 mm
15:09 19.1 °C 18.4 °C 1021.0 hPa Oeste 5.9 km/h 11.9 km/h 96% 5.6 mm
15:14 19.1 °C 18.4 °C 1021.0 hPa Oeste 6.4 km/h 11.3 km/h 96% 4.6 mm
15:19 19.1 °C 18.5 °C 1021.4 hPa NO 5.9 km/h 8 km/h 96% 5.4 mm
15:24 19.2 °C 18.6 °C 1021.4 hPa NNE 3.2 km/h 8.4 km/h 96% 6.2 mm
15:29 19.2 °C 18.6 °C 1021.4 hPa ENE 3.3 km/h 8 km/h 96% 6.7 mm
15:34 19.2 °C 18.6 °C 1021.4 hPa Este 3.9 km/h 8.4 km/h 96.1% 7.2 mm
15:39 19.2 °C 18.8 °C 1021.4 hPa ENE 3.7 km/h 13.7 km/h 97% 7.5 mm
15:44 19.4 °C 18.9 °C 1021.4 hPa NE 2.9 km/h 14.8 km/h 96.9% 6.9 mm
15:49 19.4 °C 18.8 °C 1021.4 hPa NNE 3.7 km/h 14.5 km/h 96.3% 6.9 mm
15:54 19.4 °C 18.8 °C 1021.2 hPa NNE 7.6 km/h 13 km/h 96.3% 12.7 mm
15:59 19.4 °C 18.9 °C 1021.2 hPa NNO 7.2 km/h 11.3 km/h 97% 12.7 mm
16:04 19.5 °C 19 °C 1021.2 hPa NNO 5.8 km/h 8 km/h 97% 12.7 mm
16:09 19.6 °C 19.1 °C 1020.9 hPa NNO 5.3 km/h 5.8 km/h 97% 12.5 mm
16:14 19.6 °C 19.1 °C 1020.9 hPa NO 2.9 km/h 7.4 km/h 97% 12.5 mm
16:19 19.7 °C 19.2 °C 1020.9 hPa ONO 3.1 km/h 8 km/h 97% 9.4 mm
16:24 19.7 °C 19.2 °C 1020.6 hPa Oeste 3.9 km/h 8 km/h 97% 9.2 mm
16:29 19.7 °C 19.2 °C 1020.5 hPa Oeste 3.7 km/h 8 km/h 97% 7.9 mm
16:34 19.7 °C 19.2 °C 1020.6 hPa Oeste 2.9 km/h 5.8 km/h 97% 7.6 mm
16:39 19.7 °C 19.2 °C 1020.6 hPa Oeste 3 km/h 7.4 km/h 97% 6.6 mm
16:44 19.8 °C 19.3 °C 1020.6 hPa ONO 3.2 km/h 8 km/h 97% 6.3 mm
16:49 19.8 °C 19.3 °C 1020.6 hPa NO 3 km/h 7.4 km/h 97% 6.1 mm
16:54 19.8 °C 19.3 °C 1020.5 hPa ONO 2.2 km/h 8 km/h 96.8% 6.1 mm
16:59 19.8 °C 19.3 °C 1020.5 hPa ONO 2.4 km/h 8 km/h 96.6% 0.0 mm
17:04 19.9 °C 19.4 °C 1020.6 hPa NO 3.2 km/h 8.4 km/h 97% 0.0 mm
17:09 19.8 °C 19.2 °C 1020.6 hPa NE 3.8 km/h 19 km/h 96.2% 0.0 mm
17:14 19.8 °C 19.2 °C 1020.6 hPa NE 6.4 km/h 22 km/h 96% 0.0 mm
17:19 19.9 °C 19.2 °C 1020.6 hPa NE 7.4 km/h 22.5 km/h 95.7% 0.0 mm
17:24 20.1 °C 19.3 °C 1020.4 hPa ENE 12.2 km/h 20.4 km/h 95% 0.0 mm
17:29 20.2 °C 19.3 °C 1020.4 hPa ENE 11.9 km/h 20.9 km/h 94.3% 0.0 mm
17:34 20.3 °C 19.2 °C 1020.4 hPa ENE 10.3 km/h 19.3 km/h 93.7% 0.0 mm
17:39 20.3 °C 19.1 °C 1020.2 hPa NE 10.5 km/h 20.1 km/h 93% 0.0 mm
17:44 20.4 °C 19.1 °C 1020.2 hPa NE 11.1 km/h 24.1 km/h 92.4% 0.0 mm
17:49 20.6 °C 19.1 °C 1020.2 hPa NE 11.3 km/h 24.1 km/h 91.3% 0.0 mm
17:54 20.6 °C 18.9 °C 1020.2 hPa ENE 12.2 km/h 23.7 km/h 90.3% 0.8 mm
17:59 20.6 °C 18.9 °C 1020.2 hPa NE 11.8 km/h 24.1 km/h 90.4% 1.0 mm
18:04 20.6 °C 19.1 °C 1020.2 hPa ENE 10.3 km/h 22.5 km/h 91% 1.0 mm
18:09 20.5 °C 19 °C 1020.2 hPa NE 10.3 km/h 19.3 km/h 91% 1.0 mm
18:14 20.5 °C 19 °C 1020.2 hPa ENE 10 km/h 16.1 km/h 91% 1.0 mm
18:19 20.5 °C 19 °C 1020.2 hPa ENE 10 km/h 20.4 km/h 90.8% 1.0 mm
18:24 20.6 °C 18.9 °C 1020.2 hPa NE 10 km/h 20.9 km/h 90% 1.0 mm
18:29 20.7 °C 19 °C 1020.2 hPa ENE 10.2 km/h 20.9 km/h 90% 1.0 mm
18:34 20.7 °C 18.8 °C 1020.2 hPa NE 11.1 km/h 20.4 km/h 89.1% 1.0 mm
18:39 20.8 °C 18.9 °C 1020.2 hPa ENE 10.9 km/h 20.9 km/h 89% 1.0 mm
18:44 20.8 °C 19 °C 1020.2 hPa NE 10 km/h 20.9 km/h 89% 1.0 mm
18:49 20.9 °C 19 °C 1020.4 hPa ENE 9.9 km/h 20.4 km/h 89% 1.0 mm
18:54 20.9 °C 19 °C 1020.4 hPa NE 9.5 km/h 20.9 km/h 88.7% 1.0 mm
18:59 21 °C 19 °C 1020.4 hPa NE 9.8 km/h 22.2 km/h 88% 0.2 mm
19:04 21.1 °C 18.9 °C 1020.7 hPa NE 11.1 km/h 22.5 km/h 87.1% 0.0 mm
19:09 21.2 °C 18.8 °C 1020.7 hPa NE 11.8 km/h 27.8 km/h 86.3% 0.0 mm
19:14 21.2 °C 18.8 °C 1020.7 hPa NE 15.6 km/h 28.2 km/h 86% 0.0 mm
19:19 21.2 °C 18.8 °C 1020.7 hPa NE 15.7 km/h 28.2 km/h 86% 0.0 mm
19:24 21.2 °C 18.8 °C 1020.6 hPa NE 16.4 km/h 27.4 km/h 86% 0.0 mm
19:29 21.1 °C 18.8 °C 1020.6 hPa NE 15.8 km/h 20.9 km/h 86.6% 0.3 mm
19:34 20.9 °C 18.8 °C 1020.6 hPa NE 12.2 km/h 20.4 km/h 87.6% 0.3 mm
19:39 20.8 °C 18.7 °C 1020.4 hPa NE 12.5 km/h 27.8 km/h 88% 0.3 mm
19:44 20.7 °C 18.8 °C 1020.4 hPa NE 14 km/h 27.4 km/h 88.9% 0.3 mm
19:49 20.6 °C 18.8 °C 1020.4 hPa ENE 13.4 km/h 19.8 km/h 89.3% 0.6 mm
19:54 20.5 °C 18.8 °C 1020.3 hPa NE 10.3 km/h 22.2 km/h 90% 0.8 mm
19:59 20.4 °C 18.9 °C 1020.3 hPa NE 10.7 km/h 27.8 km/h 90.9% 0.8 mm
20:04 20.4 °C 18.9 °C 1020.7 hPa NE 12.2 km/h 29.6 km/h 91% 1.1 mm
20:09 20.4 °C 18.9 °C 1020.7 hPa ENE 12.7 km/h 29 km/h 91% 1.3 mm
20:14 20.3 °C 18.8 °C 1020.7 hPa ENE 14.8 km/h 25.9 km/h 91% 1.6 mm
20:19 20.3 °C 18.7 °C 1020.8 hPa NE 14.6 km/h 26.2 km/h 91% 1.6 mm
20:24 20.2 °C 18.7 °C 1020.8 hPa NE 13.7 km/h 29.6 km/h 91% 1.9 mm
20:29 20.2 °C 18.7 °C 1020.8 hPa NE 14.6 km/h 33.3 km/h 91% 1.9 mm
20:34 20.1 °C 18.6 °C 1021.4 hPa NE 19 km/h 35.2 km/h 91% 2.3 mm
20:39 19.9 °C 18.5 °C 1021.4 hPa NE 19.2 km/h 35.4 km/h 91.6% 3.9 mm
20:44 19.8 °C 18.5 °C 1021.4 hPa NE 20.1 km/h 33.5 km/h 92.4% 4.4 mm
20:49 19.7 °C 18.5 °C 1021.5 hPa NE 20.5 km/h 42.6 km/h 93% 5.1 mm
20:54 19.6 °C 18.4 °C 1021.5 hPa NE 22.1 km/h 41.8 km/h 93% 5.1 mm
20:59 19.4 °C 18.2 °C 1021.5 hPa NE 21.3 km/h 35.4 km/h 93% 4.9 mm
21:04 19.3 °C 18.1 °C 1021.7 hPa NE 18.4 km/h 24.1 km/h 93% 4.9 mm
21:09 19.1 °C 18 °C 1021.7 hPa NE 17.3 km/h 20.9 km/h 93% 4.6 mm
21:14 19 °C 17.8 °C 1021.7 hPa ENE 11.9 km/h 20.9 km/h 93% 4.6 mm
21:19 19 °C 17.8 °C 1021.9 hPa Este 11.2 km/h 13 km/h 93% 5.2 mm
21:24 19 °C 17.9 °C 1021.9 hPa ENE 7.6 km/h 19.8 km/h 93% 6.1 mm
21:29 19.1 °C 18 °C 1021.9 hPa NE 7.8 km/h 20.9 km/h 93.5% 6.4 mm
21:34 19.2 °C 18.2 °C 1021.9 hPa NE 8.7 km/h 20.9 km/h 94% 6.6 mm
21:39 19.2 °C 18.2 °C 1021.9 hPa NE 8.9 km/h 20.9 km/h 94% 5.6 mm
21:44 19.2 °C 18.2 °C 1021.9 hPa NNE 10 km/h 14.8 km/h 94% 4.3 mm
21:49 19.2 °C 18.2 °C 1021.9 hPa NNO 9.4 km/h 14.5 km/h 94% 3.6 mm
21:54 19.2 °C 18.3 °C 1021.7 hPa North 6.5 km/h 9.7 km/h 94.8% 2.8 mm
21:59 19.2 °C 18.4 °C 1021.7 hPa NE 5.9 km/h 9.7 km/h 95% 2.8 mm
22:04 19.3 °C 18.5 °C 1022.4 hPa ENE 3.9 km/h 8 km/h 95% 2.8 mm
22:09 19.3 °C 18.5 °C 1022.4 hPa NNE 3.7 km/h 6.4 km/h 95% 2.8 mm
22:14 19.3 °C 18.5 °C 1022.4 hPa NNE 3.2 km/h 6.4 km/h 95% 2.8 mm
22:19 19.3 °C 18.5 °C 1022.4 hPa ENE 3.2 km/h 6.4 km/h 95% 2.3 mm
22:24 19.3 °C 18.5 °C 1022.0 hPa ESE 2.9 km/h 7.4 km/h 95% 1.2 mm
22:29 19.4 °C 18.5 °C 1022.0 hPa ESE 3 km/h 8 km/h 95% 0.5 mm
22:34 19.4 °C 18.5 °C 1022.1 hPa SE 3.2 km/h 8 km/h 95% 0.0 mm
22:39 19.3 °C 18.5 °C 1022.1 hPa ENE 2.7 km/h 8 km/h 95% 0.0 mm
22:44 19.3 °C 18.5 °C 1022.1 hPa Calm   5.8 km/h 95% 0.0 mm
22:49 19.3 °C 18.5 °C 1022.1 hPa Calm   6.4 km/h 95% 0.0 mm
22:54 19.3 °C 18.5 °C 1021.8 hPa Calm   2.9 km/h 95% 0.0 mm
22:59 19.3 °C 18.5 °C 1021.8 hPa NNE 0.5 km/h 6.9 km/h 95% 0.0 mm
23:04 19.3 °C 18.5 °C 1021.8 hPa ENE 2.2 km/h 16.1 km/h 95% 0.0 mm
23:09 19.2 °C 18.3 °C 1021.5 hPa NE 2.8 km/h 16.7 km/h 94.6% 0.0 mm
23:14 19.1 °C 18.1 °C 1021.5 hPa ENE 5 km/h 13.7 km/h 94% 0.0 mm
23:19 19.2 °C 18.1 °C 1021.9 hPa NE 5.2 km/h 14.5 km/h 93.1% 0.0 mm
23:24 19.2 °C 18.1 °C 1021.9 hPa SE 6.4 km/h 9.7 km/h 93% 0.0 mm
23:29 19.2 °C 18.1 °C 1021.9 hPa SE 6 km/h 8 km/h 93% 0.3 mm
23:34 19.2 °C 18 °C 1022.2 hPa Este 3.9 km/h 10 km/h 93% 0.3 mm
23:39 19.2 °C 18.1 °C 1022.2 hPa Este 4.2 km/h 11.1 km/h 93% 0.3 mm
23:44 19.1 °C 17.8 °C 1022.2 hPa NE 5.8 km/h 22.2 km/h 92.1% 0.6 mm
23:49 18.9 °C 17.6 °C 1022.5 hPa NE 6.4 km/h 22.5 km/h 92% 0.8 mm
23:54 18.9 °C 17.6 °C 1022.5 hPa North 10 km/h 16.1 km/h 92.2% 1.3 mm
23:59 18.8 °C 17.7 °C 1022.5 hPa ONO 9.3 km/h 12.9 km/h 93% 1.8 mm
Murcia-Puente Tocinos, España
Compliments of Weather Underground - 3 mb

La estación de MeteoMurcia.com, publica sus datos en los siguientes proyectos:

Weather Underground PWS IMURCIAP2 Meteoclimatic www.awekas.at

W3Counter
Web Analytics